This is the latest recevied weather packets stored in our database for station/object LRAR. If no packets are shown the sender has not sent any weather packets the latest 1 day(s).
| Time | Temp. | Humidity | Pressure | Rain* | Wind** | Luminosity | Snow |
|---|---|---|---|---|---|---|---|
| 1778103219 | 15° C | 72% | 1011 hPa | - | - | - | - |
| 1778101418 | 15° C | 72% | 1011 hPa | - | - | - | - |
| 1778100519 | 16.11° C | 68% | 1011 hPa | - | - | - | - |
| 1778096042 | 17.22° C | 64% | 1011 hPa | - | - | - | - |
| 1778093324 | 18.89° C | 56% | 1011 hPa | - | - | - | - |
| 1778089719 | 22.22° C | 47% | 1010 hPa | - | - | - | - |
| 1778087919 | 22.78° C | 44% | 1010 hPa | - | - | - | - |
| 1778084319 | 23.89° C | 39% | 1011 hPa | - | - | - | - |
| 1778080718 | 25° C | 36% | 1011 hPa | - | - | - | - |
| 1778078030 | 25° C | 36% | 1011 hPa | - | - | - | - |
| 1778076298 | 26.11° C | 37% | 1012 hPa | - | - | - | - |
| 1778067219 | 25° C | 42% | 1013 hPa | - | - | - | - |
| 1778066318 | 23.89° C | 41% | 1013 hPa | - | - | - | - |
| 1778065418 | 23.89° C | 41% | 1013 hPa | - | - | - | - |
| 1778063619 | 23.89° C | 41% | 1013 hPa | - | - | - | - |
| 1778062719 | 23.89° C | 44% | 1014 hPa | - | - | - | - |
| 1778060018 | 22.78° C | 47% | 1014 hPa | - | - | - | - |
| 1778056418 | 22.22° C | 47% | 1014 hPa | - | - | - | - |
| 1778055515 | 21.11° C | 50% | 1014 hPa | - | - | - | - |
| 1778053719 | 20° C | 53% | 1014 hPa | - | - | - | - |
| 1778051918 | 20° C | 49% | 1014 hPa | - | - | - | - |
| 1778051018 | 20° C | 49% | 1014 hPa | - | - | - | - |
| 1778049218 | 18.89° C | 56% | 1014 hPa | - | - | - | - |
| 1778048319 | 16.11° C | 63% | 1014 hPa | - | - | - | - |
| 1778047420 | 16.11° C | 63% | 1014 hPa | - | - | - | - |
* Rain since midnight (hover to see other rain measurements)
** Current wind speed in m/s (hover to see current wind gust speed)